Terminal Aerodrome Forecast
Issued by NWS

Home | Current Version | Previous Version | Text Only | Print | Product List | Glossary On
Versions: 1 2 3 4 5 6 7 8 9 10 11 12 13 14 15 16 17 18 19 20 21 22 23 24 25 26 27 28 29
000
FTUS45 KGJT 211120
TAFCNY
TAF
KCNY 211120Z 2112/2212 13005KT P6SM SCT120
     FM211400 VRB03KT P6SM VCSH SCT060 BKN100
     FM211800 34010KT P6SM SCT060 BKN090
     FM220000 26009KT P6SM BKN150
     FM220600 VRB03KT P6SM BKN250=

USA.gov is the U.S. government's official web portal to all federal, state and local government web resources and services.